createdAt,value
2017-06-01T00:00:31.188Z,4.25
2017-06-01T00:02:59.572Z,4.05
2017-06-01T00:05:27.947Z,4.08
2017-06-01T00:07:56.224Z,4.77
2017-06-01T00:10:24.505Z,3.62
2017-06-01T00:12:52.983Z,4.57
2017-06-01T00:15:21.259Z,4.25
2017-06-01T00:17:49.540Z,4.78
2017-06-01T00:20:17.948Z,4.30
2017-06-01T00:22:46.232Z,4.47
2017-06-01T00:25:14.520Z,4.52
2017-06-01T00:27:43.160Z,4.18
2017-06-01T00:30:11.478Z,4.38
2017-06-01T00:32:39.739Z,3.53
2017-06-01T00:35:08.056Z,4.08
2017-06-01T00:37:36.328Z,3.63
2017-06-01T00:40:04.599Z,4.47
2017-06-01T00:42:33.123Z,3.50
2017-06-01T00:45:01.407Z,3.68
2017-06-01T00:47:29.681Z,4.05
2017-06-01T00:49:58.000Z,3.53
2017-06-01T00:52:26.276Z,4.15
2017-06-01T00:54:54.544Z,4.40
2017-06-01T00:57:23.197Z,3.85
2017-06-01T00:59:51.472Z,3.95
2017-06-01T01:02:19.747Z,3.53
2017-06-01T01:04:48.048Z,4.13
2017-06-01T01:07:16.323Z,3.78
2017-06-01T01:09:44.630Z,4.43
2017-06-01T01:12:13.360Z,3.82
2017-06-01T01:14:41.632Z,4.48
2017-06-01T01:17:09.904Z,3.62
2017-06-01T01:19:38.203Z,3.77
2017-06-01T01:22:06.505Z,4.35
2017-06-01T01:24:34.787Z,3.42
2017-06-01T01:27:03.107Z,4.38
2017-06-01T01:29:31.383Z,3.90
2017-06-01T01:31:59.657Z,4.22
2017-06-01T01:34:27.966Z,3.73
2017-06-01T01:36:56.242Z,3.65
2017-06-01T01:39:24.552Z,3.38
2017-06-01T01:41:52.855Z,4.42
2017-06-01T01:44:21.189Z,4.52
2017-06-01T01:46:49.747Z,4.12
2017-06-01T01:49:18.028Z,4.83
2017-06-01T01:51:46.350Z,4.58
2017-06-01T01:54:14.664Z,3.95
2017-06-01T01:56:42.939Z,4.92
2017-06-01T01:59:11.215Z,4.88
2017-06-01T02:01:39.524Z,4.53
2017-06-01T02:04:07.799Z,4.47
2017-06-01T02:06:36.103Z,4.22
2017-06-01T02:09:04.424Z,4.03
2017-06-01T02:11:32.700Z,4.22
2017-06-01T02:14:01.002Z,4.27
2017-06-01T02:16:29.287Z,3.72
2017-06-01T02:18:57.603Z,4.65
2017-06-01T02:21:25.880Z,5.13
2017-06-01T02:23:54.155Z,4.20
2017-06-01T02:26:22.463Z,4.40
2017-06-01T02:28:50.764Z,4.20
2017-06-01T02:31:19.039Z,4.70
2017-06-01T02:33:47.367Z,4.27
2017-06-01T02:36:15.656Z,4.80
2017-06-01T02:38:43.931Z,4.28
2017-06-01T02:41:12.248Z,5.08
2017-06-01T02:43:40.515Z,4.55
2017-06-01T02:46:08.797Z,4.57
2017-06-01T02:48:37.096Z,4.13
2017-06-01T02:51:05.395Z,4.27
2017-06-01T02:53:33.672Z,4.97
2017-06-01T02:56:02.080Z,4.58
2017-06-01T02:58:30.351Z,4.23
2017-06-01T03:00:58.625Z,4.50
2017-06-01T03:03:27.152Z,3.82
2017-06-01T03:05:55.432Z,4.47
2017-06-01T03:08:23.709Z,4.90
2017-06-01T03:10:52.016Z,4.65
2017-06-01T03:13:20.420Z,5.32
2017-06-01T03:15:49.464Z,5.52
2017-06-01T03:18:17.744Z,4.90
2017-06-01T03:20:46.072Z,4.73
2017-06-01T03:23:14.350Z,3.83
2017-06-01T03:25:42.625Z,4.80
2017-06-01T03:28:10.945Z,4.45
2017-06-01T03:30:39.225Z,4.50
2017-06-01T03:33:07.500Z,5.32
2017-06-01T03:35:35.820Z,5.30
2017-06-01T03:38:04.092Z,4.60
2017-06-01T03:40:32.362Z,5.38
2017-06-01T03:43:00.664Z,5.68
2017-06-01T03:45:28.971Z,5.67
2017-06-01T03:47:57.247Z,4.53
2017-06-01T03:50:25.527Z,5.30
2017-06-01T03:52:53.933Z,5.25
2017-06-01T03:55:22.208Z,6.23
2017-06-01T03:57:50.488Z,5.53
2017-06-01T04:00:18.804Z,6.03
2017-06-01T04:02:47.076Z,5.28
2017-06-01T04:05:15.348Z,6.65
2017-06-01T04:07:43.656Z,5.97
2017-06-01T04:10:11.924Z,5.22
2017-06-01T04:12:40.228Z,5.52
2017-06-01T04:15:08.495Z,5.13
2017-06-01T04:17:36.896Z,5.78
2017-06-01T04:20:05.168Z,5.45
2017-06-01T04:22:33.439Z,6.25
2017-06-01T04:25:01.760Z,6.35
2017-06-01T04:27:30.044Z,5.72
2017-06-01T04:29:58.324Z,5.68
2017-06-01T04:32:26.727Z,5.42
2017-06-01T04:34:54.999Z,5.42
2017-06-01T04:37:23.278Z,5.28
2017-06-01T04:39:51.588Z,5.52
2017-06-01T04:42:19.860Z,5.63
2017-06-01T04:44:48.962Z,6.77
2017-06-01T04:47:17.359Z,5.33
2017-06-01T04:49:45.645Z,5.87
2017-06-01T04:52:13.925Z,5.93
2017-06-01T04:54:42.237Z,6.25
2017-06-01T04:57:10.521Z,5.88
2017-06-01T04:59:38.841Z,6.35
2017-06-01T05:02:07.120Z,6.48
2017-06-01T05:04:35.397Z,6.20
2017-06-01T05:07:03.723Z,6.12
2017-06-01T05:09:32.006Z,6.77
2017-06-01T05:12:00.293Z,7.07
2017-06-01T05:14:28.601Z,6.37
2017-06-01T05:16:56.884Z,6.43
2017-06-01T05:19:25.350Z,6.35
2017-06-01T05:21:53.629Z,6.73
2017-06-01T05:24:21.921Z,7.33
2017-06-01T05:26:50.279Z,6.93
2017-06-01T05:29:18.692Z,7.45
2017-06-01T05:31:46.976Z,7.43
2017-06-01T05:34:15.263Z,7.02
2017-06-01T05:36:43.582Z,6.40
2017-06-01T05:39:11.975Z,7.18
2017-06-01T05:41:40.264Z,8.13
2017-06-01T05:44:08.879Z,7.48
2017-06-01T05:46:37.164Z,8.28
2017-06-01T05:49:05.454Z,7.30
2017-06-01T05:51:33.768Z,7.33
2017-06-01T05:54:02.071Z,6.92
2017-06-01T05:56:30.351Z,7.17
2017-06-01T05:58:58.668Z,7.87
2017-06-01T06:01:26.948Z,8.80
2017-06-01T06:03:55.223Z,8.88
2017-06-01T06:06:23.532Z,8.40
2017-06-01T06:08:51.812Z,7.62
2017-06-01T06:11:20.096Z,7.97
2017-06-01T06:13:48.410Z,9.45
2017-06-01T06:16:16.725Z,8.57
2017-06-01T06:18:45.118Z,9.28
2017-06-01T06:21:13.428Z,9.75
2017-06-01T06:23:41.784Z,9.38
2017-06-01T06:26:10.148Z,9.32
2017-06-01T06:28:38.528Z,8.67
2017-06-01T06:31:07.008Z,9.93
2017-06-01T06:33:35.289Z,8.67
2017-06-01T06:36:04.600Z,8.45
2017-06-01T06:38:32.956Z,7.98
2017-06-01T06:41:01.351Z,8.72
2017-06-01T06:43:29.724Z,8.93
2017-06-01T06:45:58.012Z,8.23
2017-06-01T06:48:26.584Z,8.60
2017-06-01T06:50:54.964Z,9.15
2017-06-01T06:53:23.252Z,8.27
2017-06-01T06:55:52.336Z,7.78
2017-06-01T06:58:20.721Z,9.00
2017-06-01T07:00:49.004Z,8.62
2017-06-01T07:03:17.327Z,9.87
2017-06-01T07:05:45.748Z,7.77
2017-06-01T07:08:14.028Z,7.80
2017-06-01T07:10:42.344Z,8.08
2017-06-01T07:13:10.623Z,7.47
2017-06-01T07:15:38.911Z,7.58
2017-06-01T07:18:07.236Z,7.50
2017-06-01T07:20:35.519Z,8.28
2017-06-01T07:23:03.803Z,7.02
2017-06-01T07:25:32.114Z,7.85
2017-06-01T07:28:00.399Z,8.87
2017-06-01T07:30:28.787Z,7.88
2017-06-01T07:32:57.079Z,8.90
2017-06-01T07:35:25.385Z,8.62
2017-06-01T07:37:53.803Z,8.05
2017-06-01T07:40:22.084Z,7.62
2017-06-01T07:42:50.372Z,8.05
2017-06-01T07:45:18.691Z,7.70
2017-06-01T07:47:46.981Z,7.65
2017-06-01T07:50:15.291Z,8.55
2017-06-01T07:52:43.584Z,7.72
2017-06-01T07:55:11.872Z,7.58
2017-06-01T07:57:40.199Z,8.17
2017-06-01T08:00:08.488Z,8.07
2017-06-01T08:02:36.776Z,7.30
2017-06-01T08:05:05.518Z,8.17
2017-06-01T08:07:33.808Z,8.58
2017-06-01T08:10:02.092Z,7.55
2017-06-01T08:12:30.507Z,7.83
2017-06-01T08:14:58.792Z,7.87
2017-06-01T08:17:27.080Z,7.93
2017-06-01T08:19:55.492Z,7.68
2017-06-01T08:22:23.783Z,8.40
2017-06-01T08:24:52.068Z,7.92
2017-06-01T08:27:20.480Z,7.82
2017-06-01T08:29:48.763Z,7.84
2017-06-01T08:32:17.041Z,7.72
2017-06-01T08:34:45.353Z,8.78
2017-06-01T08:37:13.669Z,8.84
2017-06-01T08:39:41.962Z,8.62
2017-06-01T08:42:10.389Z,8.43
2017-06-01T08:44:38.765Z,8.24
2017-06-01T08:47:07.149Z,8.13
2017-06-01T08:49:35.433Z,7.76
2017-06-01T08:52:04.010Z,7.82
2017-06-01T08:54:32.299Z,8.46
2017-06-01T08:57:00.586Z,9.64
2017-06-01T08:59:28.912Z,7.38
2017-06-01T09:01:57.191Z,7.50
2017-06-01T09:04:25.463Z,8.22
2017-06-01T09:06:53.768Z,7.80
2017-06-01T09:09:22.137Z,7.46
2017-06-01T09:11:50.416Z,8.70
2017-06-01T09:14:18.823Z,7.82
2017-06-01T09:16:47.115Z,10.08
2017-06-01T09:19:15.392Z,8.28
2017-06-01T09:21:43.695Z,9.26
2017-06-01T09:24:12.108Z,8.24
2017-06-01T09:26:40.387Z,8.40
2017-06-01T09:29:08.669Z,10.56
2017-06-01T09:31:36.979Z,8.38
2017-06-01T09:34:05.256Z,7.38
2017-06-01T09:36:33.585Z,8.64
2017-06-01T09:39:01.904Z,9.58
2017-06-01T09:41:30.184Z,8.70
2017-06-01T09:43:58.465Z,9.24
2017-06-01T09:46:26.771Z,9.28
2017-06-01T09:48:55.076Z,9.52
2017-06-01T09:51:23.355Z,10.96
2017-06-01T09:53:51.640Z,10.02
2017-06-01T09:56:19.965Z,10.28
2017-06-01T09:58:48.247Z,10.32
2017-06-01T10:01:16.527Z,10.00
2017-06-01T10:03:44.840Z,9.34
2017-06-01T10:06:13.119Z,11.12
2017-06-01T10:08:41.608Z,9.70
2017-06-01T10:11:09.892Z,10.28
2017-06-01T10:13:38.171Z,9.58
2017-06-01T10:16:06.480Z,11.82
2017-06-01T10:18:34.791Z,11.12
2017-06-01T10:21:03.069Z,11.16
2017-06-01T10:23:31.352Z,10.46
2017-06-01T10:25:59.851Z,10.84
2017-06-01T10:28:28.135Z,10.00
2017-06-01T10:30:56.427Z,10.48
2017-06-01T10:33:24.735Z,10.52
2017-06-01T10:35:53.015Z,9.84
2017-06-01T10:38:21.444Z,10.38
2017-06-01T10:40:49.820Z,11.82
2017-06-01T10:43:18.104Z,10.78
2017-06-01T10:45:46.482Z,11.20
2017-06-01T10:48:14.857Z,10.20
2017-06-01T10:50:43.136Z,10.48
2017-06-01T10:53:11.512Z,11.40
2017-06-01T10:55:39.892Z,10.30
2017-06-01T10:58:08.170Z,9.44
2017-06-01T11:00:36.476Z,9.10
2017-06-01T11:03:04.787Z,8.66
2017-06-01T11:05:33.103Z,8.54
2017-06-01T11:08:01.383Z,8.30
2017-06-01T11:10:29.843Z,9.28
2017-06-01T11:12:58.136Z,10.60
2017-06-01T11:15:26.412Z,9.50
2017-06-01T11:17:55.096Z,8.64
2017-06-01T11:20:23.380Z,9.80
2017-06-01T11:22:51.659Z,9.18
2017-06-01T11:25:20.033Z,8.94
2017-06-01T11:27:48.335Z,7.62
2017-06-01T11:30:16.687Z,8.32
2017-06-01T11:32:45.174Z,8.76
2017-06-01T11:35:13.456Z,7.72
2017-06-01T11:37:41.924Z,8.64
2017-06-01T11:40:10.408Z,8.02
2017-06-01T11:42:38.688Z,7.74
2017-06-01T11:45:06.964Z,8.10
2017-06-01T11:47:35.349Z,7.90
2017-06-01T11:50:03.635Z,7.60
2017-06-01T11:52:31.952Z,7.06
2017-06-01T11:55:00.236Z,9.86
2017-06-01T11:57:28.550Z,7.18
2017-06-01T11:59:57.236Z,8.48
2017-06-01T12:02:25.619Z,8.24
2017-06-01T12:04:53.893Z,7.08
2017-06-01T12:07:22.200Z,7.66
2017-06-01T12:09:50.479Z,6.82
2017-06-01T12:12:19.242Z,6.68
2017-06-01T12:14:47.520Z,7.08
2017-06-01T12:17:15.796Z,7.26
2017-06-01T12:19:44.103Z,6.38
2017-06-01T12:22:12.444Z,6.66
2017-06-01T12:24:40.834Z,5.86
2017-06-01T12:27:09.125Z,7.10
2017-06-01T12:29:37.532Z,6.72
2017-06-01T12:32:05.864Z,8.42
2017-06-01T12:34:34.244Z,7.80
2017-06-01T12:37:02.615Z,6.90
2017-06-01T12:39:30.892Z,6.22
2017-06-01T12:41:59.275Z,7.56
2017-06-01T12:44:27.767Z,6.56
2017-06-01T12:46:56.048Z,18.64
2017-06-01T12:49:24.320Z,8.18
2017-06-01T12:51:52.691Z,7.66
2017-06-01T12:54:20.972Z,7.34
2017-06-01T12:56:49.272Z,7.40
2017-06-01T12:59:17.547Z,7.22
2017-06-01T13:01:45.900Z,5.50
2017-06-01T13:04:14.182Z,5.44
2017-06-01T13:06:42.558Z,5.98
2017-06-01T13:09:10.938Z,4.94
2017-06-01T13:11:39.212Z,5.58
2017-06-01T13:14:07.587Z,6.42
2017-06-01T13:16:36.034Z,7.66
2017-06-01T13:19:04.295Z,8.12
2017-06-01T13:21:32.618Z,6.42
2017-06-01T13:24:00.904Z,19.40
2017-06-01T13:26:29.185Z,6.22
2017-06-01T13:28:57.499Z,6.18
2017-06-01T13:31:25.841Z,6.20
2017-06-01T13:33:54.212Z,6.90
2017-06-01T13:36:22.536Z,5.18
2017-06-01T13:38:50.824Z,6.42
2017-06-01T13:41:19.108Z,6.60
2017-06-01T13:43:47.560Z,5.96
2017-06-01T13:46:15.844Z,7.22
2017-06-01T13:48:44.124Z,6.88
2017-06-01T13:51:12.533Z,5.60
2017-06-01T13:53:40.807Z,6.50
2017-06-01T13:56:09.099Z,7.56
2017-06-01T13:58:37.472Z,7.00
2017-06-01T14:01:05.776Z,6.36
2017-06-01T14:03:34.056Z,10.42
2017-06-01T14:06:02.456Z,5.66
2017-06-01T14:08:30.735Z,6.92
2017-06-01T14:10:59.011Z,6.36
2017-06-01T14:13:27.312Z,6.58
2017-06-01T14:15:55.591Z,7.58
2017-06-01T14:18:23.899Z,6.46
2017-06-01T14:20:52.204Z,6.56
2017-06-01T14:23:20.480Z,7.00
2017-06-01T14:25:48.885Z,5.52
2017-06-01T14:28:17.156Z,5.54
2017-06-01T14:30:45.434Z,7.84
2017-06-01T14:33:13.731Z,5.88
2017-06-01T14:35:42.032Z,6.40
2017-06-01T14:38:10.317Z,5.56
2017-06-01T14:40:38.599Z,6.02
2017-06-01T14:43:06.899Z,6.62
2017-06-01T14:45:35.176Z,6.78
2017-06-01T14:48:03.586Z,6.92
2017-06-01T14:50:31.864Z,7.22
2017-06-01T14:53:00.140Z,5.92
2017-06-01T14:55:28.439Z,7.48
2017-06-01T14:57:56.707Z,6.74
2017-06-01T15:00:25.108Z,7.18
2017-06-01T15:02:53.380Z,5.72
2017-06-01T15:05:21.659Z,6.22
2017-06-01T15:07:50.687Z,6.48
2017-06-01T15:10:18.967Z,29.68
2017-06-01T15:12:47.708Z,45.42
2017-06-01T15:15:16.183Z,6.88
2017-06-01T15:17:44.559Z,6.90
2017-06-01T15:20:12.837Z,12.04
2017-06-01T15:22:41.245Z,6.36
2017-06-01T15:25:09.525Z,5.82
2017-06-01T15:27:37.800Z,6.56
2017-06-01T15:30:06.100Z,6.76
2017-06-01T15:32:34.376Z,7.36
2017-06-01T15:35:02.733Z,7.12
2017-06-01T15:37:31.108Z,7.88
2017-06-01T15:39:59.387Z,6.50
2017-06-01T15:42:27.696Z,6.20
2017-06-01T15:44:56.044Z,6.58
2017-06-01T15:47:24.323Z,5.82
2017-06-01T15:49:52.796Z,7.06
2017-06-01T15:52:21.080Z,6.74
2017-06-01T15:54:49.352Z,6.64
2017-06-01T15:57:17.645Z,6.60
2017-06-01T15:59:45.940Z,6.56
2017-06-01T16:02:14.207Z,5.44
2017-06-01T16:04:42.971Z,5.16
2017-06-01T16:07:11.236Z,4.84
2017-06-01T16:09:39.508Z,4.82
2017-06-01T16:12:07.820Z,5.62
2017-06-01T16:14:36.127Z,4.68
2017-06-01T16:17:04.676Z,5.38
2017-06-01T16:19:33.248Z,4.52
2017-06-01T16:22:01.523Z,4.18
2017-06-01T16:24:29.788Z,4.00
2017-06-01T16:26:58.104Z,4.10
2017-06-01T16:29:26.377Z,3.14
2017-06-01T16:31:54.735Z,3.60
2017-06-01T16:34:23.031Z,3.20
2017-06-01T16:36:51.376Z,3.76
2017-06-01T16:39:19.690Z,4.12
2017-06-01T16:41:47.972Z,3.92
2017-06-01T16:44:16.320Z,3.82
2017-06-01T16:46:44.628Z,3.26
2017-06-01T16:49:12.900Z,3.18
2017-06-01T16:51:41.261Z,2.98
2017-06-01T16:54:09.642Z,2.90
2017-06-01T16:56:37.939Z,4.80
2017-06-01T16:59:06.221Z,3.44
2017-06-01T17:01:34.576Z,3.58
2017-06-01T17:04:02.880Z,3.00
2017-06-01T17:06:31.234Z,4.12
2017-06-01T17:08:59.542Z,4.10
2017-06-01T17:11:27.816Z,3.60
2017-06-01T17:13:56.169Z,3.90
2017-06-01T17:16:24.545Z,3.70
2017-06-01T17:18:52.815Z,3.32
2017-06-01T17:21:21.097Z,2.68
2017-06-01T17:23:49.477Z,3.14
2017-06-01T17:26:17.755Z,2.76
2017-06-01T17:28:46.180Z,3.24
2017-06-01T17:31:14.530Z,3.16
2017-06-01T17:33:42.814Z,3.12
2017-06-01T17:36:11.274Z,2.74
2017-06-01T17:38:39.649Z,2.70
2017-06-01T17:41:08.357Z,2.30
2017-06-01T17:43:36.725Z,2.64
2017-06-01T17:46:05.004Z,2.48
2017-06-01T17:48:33.308Z,2.48
2017-06-01T17:51:01.650Z,2.74
2017-06-01T17:53:29.933Z,2.30
2017-06-01T17:55:58.409Z,2.54
2017-06-01T17:58:26.685Z,2.82
2017-06-01T18:00:55.063Z,2.56
2017-06-01T18:03:23.672Z,2.20
2017-06-01T18:05:51.948Z,2.20
2017-06-01T18:08:20.261Z,2.42
2017-06-01T18:10:48.570Z,2.50
2017-06-01T18:13:16.865Z,2.60
2017-06-01T18:15:45.239Z,2.36
2017-06-01T18:18:13.561Z,3.22
2017-06-01T18:20:41.894Z,2.62
2017-06-01T18:23:10.168Z,2.96
2017-06-01T18:25:38.496Z,2.60
2017-06-01T18:28:06.777Z,3.16
2017-06-01T18:30:35.106Z,2.96
2017-06-01T18:33:03.483Z,2.58
2017-06-01T18:35:31.866Z,3.12
2017-06-01T18:38:00.241Z,2.80
2017-06-01T18:40:28.726Z,3.20
2017-06-01T18:42:57.020Z,3.18
2017-06-01T18:45:25.387Z,3.10
2017-06-01T18:47:53.865Z,3.40
2017-06-01T18:50:22.346Z,3.64
2017-06-01T18:52:50.625Z,3.80
2017-06-01T18:55:19.208Z,3.44
2017-06-01T18:57:47.488Z,3.40
2017-06-01T19:00:15.773Z,4.02
2017-06-01T19:02:44.097Z,4.12
2017-06-01T19:05:12.377Z,3.30
2017-06-01T19:07:40.669Z,3.50
2017-06-01T19:10:08.988Z,3.64
2017-06-01T19:12:37.272Z,4.00
2017-06-01T19:15:05.628Z,3.84
2017-06-01T19:17:34.000Z,3.72
2017-06-01T19:20:02.393Z,3.50
2017-06-01T19:22:30.770Z,3.80
2017-06-01T19:24:59.141Z,3.76
2017-06-01T19:27:27.453Z,4.10
2017-06-01T19:29:55.785Z,4.10
2017-06-01T19:32:24.072Z,4.06
2017-06-01T19:34:52.454Z,3.46
2017-06-01T19:37:20.931Z,2.96
2017-06-01T19:39:49.313Z,2.82
2017-06-01T19:42:17.596Z,2.84
2017-06-01T19:44:45.973Z,3.24
2017-06-01T19:47:14.280Z,3.38
2017-06-01T19:49:42.626Z,4.88
2017-06-01T19:52:10.909Z,5.44
2017-06-01T19:54:39.365Z,4.32
2017-06-01T19:57:07.665Z,4.28
2017-06-01T19:59:36.044Z,4.40
2017-06-01T20:02:04.356Z,4.20
2017-06-01T20:04:32.700Z,3.92
2017-06-01T20:07:01.003Z,3.38
2017-06-01T20:09:29.317Z,3.90
2017-06-01T20:11:57.608Z,11.22
2017-06-01T20:14:26.012Z,2.98
2017-06-01T20:16:54.392Z,3.40
2017-06-01T20:19:22.721Z,3.52
2017-06-01T20:21:51.045Z,2.82
2017-06-01T20:24:19.325Z,3.62
2017-06-01T20:26:47.638Z,3.56
2017-06-01T20:29:15.978Z,3.80
2017-06-01T20:31:44.345Z,3.54
2017-06-01T20:34:12.656Z,3.20
2017-06-01T20:36:40.939Z,3.60
2017-06-01T20:39:09.444Z,3.24
2017-06-01T20:41:37.724Z,3.12
2017-06-01T20:44:06.005Z,3.12
2017-06-01T20:46:34.312Z,2.92
2017-06-01T20:49:02.598Z,3.38
2017-06-01T20:51:30.990Z,3.10
2017-06-01T20:53:59.296Z,3.72
2017-06-01T20:56:27.625Z,3.52
2017-06-01T20:58:56.017Z,4.40
2017-06-01T21:01:24.391Z,3.28
2017-06-01T21:03:52.708Z,2.52
2017-06-01T21:06:21.048Z,2.92
2017-06-01T21:08:49.324Z,3.02
2017-06-01T21:11:17.623Z,2.80
2017-06-01T21:13:46.704Z,3.98
2017-06-01T21:16:15.282Z,3.36
2017-06-01T21:18:43.835Z,2.80
2017-06-01T21:21:12.419Z,3.00
2017-06-01T21:23:40.878Z,3.34
2017-06-01T21:26:09.483Z,3.42
2017-06-01T21:28:38.069Z,3.08
2017-06-01T21:31:06.651Z,2.64
2017-06-01T21:33:35.645Z,3.42
2017-06-01T21:36:04.229Z,4.08
2017-06-01T21:38:32.607Z,3.38
2017-06-01T21:41:00.976Z,3.42
2017-06-01T21:43:29.359Z,3.68
2017-06-01T21:45:57.740Z,4.34
2017-06-01T21:48:26.219Z,4.30
2017-06-01T21:50:54.600Z,3.70
2017-06-01T21:53:22.979Z,3.92
2017-06-01T21:55:51.461Z,4.42
2017-06-01T21:58:19.845Z,4.12
2017-06-01T22:00:48.129Z,4.24
2017-06-01T22:03:16.496Z,4.70
2017-06-01T22:05:44.875Z,4.44
2017-06-01T22:08:13.196Z,6.18
2017-06-01T22:10:41.475Z,5.70
2017-06-01T22:13:09.807Z,6.28
2017-06-01T22:15:38.187Z,5.70
2017-06-01T22:18:06.567Z,4.92
2017-06-01T22:20:35.053Z,5.22
2017-06-01T22:23:03.328Z,5.28
2017-06-01T22:25:31.611Z,5.22
2017-06-01T22:27:59.979Z,5.10
2017-06-01T22:30:28.355Z,5.62
2017-06-01T22:32:56.740Z,5.18
2017-06-01T22:35:25.044Z,5.72
2017-06-01T22:37:53.596Z,5.66
2017-06-01T22:40:21.868Z,5.96
2017-06-01T22:42:50.147Z,5.72
2017-06-01T22:45:18.744Z,5.70
2017-06-01T22:47:47.020Z,5.66
2017-06-01T22:50:15.388Z,5.68
2017-06-01T22:52:43.767Z,6.16
2017-06-01T22:55:12.148Z,5.95
2017-06-01T22:57:40.424Z,5.58
2017-06-01T23:00:08.758Z,5.52
2017-06-01T23:02:37.044Z,5.22
2017-06-01T23:05:05.372Z,5.98
2017-06-01T23:07:33.843Z,4.86
2017-06-01T23:10:02.225Z,5.14
2017-06-01T23:12:30.516Z,4.93
2017-06-01T23:14:58.975Z,5.05
2017-06-01T23:17:27.372Z,4.78
2017-06-01T23:19:55.652Z,5.63
2017-06-01T23:22:23.960Z,5.20
2017-06-01T23:24:52.244Z,5.75
2017-06-01T23:27:20.529Z,6.02
2017-06-01T23:29:48.828Z,5.76
2017-06-01T23:32:17.124Z,5.77
2017-06-01T23:34:45.437Z,5.82
2017-06-01T23:37:13.716Z,5.96
2017-06-01T23:39:42.125Z,6.40
2017-06-01T23:42:10.399Z,5.96
2017-06-01T23:44:38.684Z,5.13
2017-06-01T23:47:06.996Z,6.37
2017-06-01T23:49:35.370Z,6.92
2017-06-01T23:52:03.748Z,5.32
2017-06-01T23:54:32.119Z,6.83
2017-06-01T23:57:00.405Z,6.88
2017-06-01T23:59:29.126Z,6.02
